Tiempo atmosférico en la estación meteorológica de Alfaro, La Rioja (285 m.)



Fecha
DESCASC
Temp. máxima en grados centígrados (hora)
DESCASC
Temp. mínima en grados centígrados (hora)
DESCASC
Temp. media en grados centígrados
DESCASC
Racha de viento máxima en m/sg (hora)
DESCASC
Velocidad máxima media en intervalos de 10 minutos(hora)
DESCASC
Precipitaciones diarias en mm
DESCASC
Precipitaciones de 00:00 a 06:00 en mm
DESCASC
Precipitaciones de 06:00 a 12:00 en mm
DESCASC
Precipitaciones de 12:00 a 18:00 en mm
DESCASC
Precipitaciones de 18:00 a 24:00 en mm
DESCASC
23-06-2019 34.9 (16:20) 17.9 (05:20) 26.4 10.28 (20:10) 6.39 (10:40) 0 0 0 0 0
22-06-2019 31.2 (18:10) 8.8 (06:10) 20 8.33 (00:10) 4.44 (00:10) 0 0 0 0 0
21-06-2019 23.3 (18:20) 14.5 (07:00) 18.9 10.83 (16:50) 6.11 (00:50) 0.6 0.6 0 0 0
20-06-2019 26.2 (15:00) 15.2 (00:00) 20.7 10.83 (15:40) 7.22 (15:40) 4.2 0 0 0 4.2
19-06-2019 -- (--) -- (--) -- -- (--) -- (--) -- 0 -- -- 0
18-06-2019 35.1 (17:20) 16.5 (00:00) 25.8 13.89 (15:40) 8.89 (17:10) 0 0 0 0 0
17-06-2019 33.8 (18:30) 10.4 (00:00) 22.1 13.61 (16:20) 5.56 (23:20) 0 0 0 0 0
16-06-2019 29.7 (17:30) 7.4 (00:00) 18.6 7.5 (14:00) 4.17 (14:10) 0 0 0 0 0
15-06-2019 24.5 (15:50) 12.1 (00:00) 18.3 10.56 (17:20) 5.56 (18:00) 0 0 0 0 0
14-06-2019 26.8 (17:40) 12.3 (00:00) 19.5 10 (21:40) 5.56 (21:40) 0 0 0 0 0
13-06-2019 28.3 (17:40) 7.4 (00:00) 17.8 16.39 (20:40) 10.56 (20:40) 0 0 0 0 0
12-06-2019 22.8 (18:30) 4.3 (00:00) 13.5 9.44 (15:50) 4.17 (16:00) 0 0 0 0 0
11-06-2019 18.7 (16:30) 9.8 (00:00) 14.3 12.5 (13:10) 7.78 (17:10) 1.6 0.4 1 0.2 0
10-06-2019 20.3 (16:50) 12.8 (00:00) 16.5 12.78 (20:00) 7.5 (14:10) 0 0 0 0 0
09-06-2019 28 (17:30) 12.3 (00:00) 20.2 13.89 (19:00) 8.33 (19:10) 0 0 0 0 0
08-06-2019 26.7 (18:20) 7.4 (00:00) 17.1 10.56 (14:20) 6.39 (15:00) 0 0 0 0 0
07-06-2019 22 (16:40) 12.2 (00:00) 17.1 13.61 (01:30) 8.89 (01:30) 0 0 0 0 0
06-06-2019 26.3 (18:50) 8.4 (00:00) 17.3 13.89 (17:40) 9.17 (17:30) 0 0 0 0 0
05-06-2019 18.2 (15:50) 11.5 (00:00) 14.9 11.67 (08:10) 6.94 (08:10) 11.2 5.2 6 0 0
04-06-2019 -- (--) -- (--) -- -- (--) -- (--) -- -- -- -- 2.4
03-06-2019 -- (--) -- (--) -- -- (--) -- (--) -- -- -- -- --
02-06-2019 -- (--) -- (--) -- -- (--) -- (--) -- -- -- -- --
01-06-2019 -- (--) -- (--) -- -- (--) -- (--) -- -- -- -- --
31-05-2019 -- (--) -- (--) -- -- (--) -- (--) -- -- -- -- --
30-05-2019 -- (--) -- (--) -- -- (--) -- (--) -- -- -- -- --
29-05-2019 -- (--) -- (--) -- -- (--) -- (--) -- 0 0 0 --
28-05-2019 19.5 (14:40) 9.9 (00:00) 14.7 13.89 (15:10) 8.61 (09:30) 0 0 0 0 0

Gráficas

Temp. máximas Temp. mínimas Temp. medias Precipitaciones Rachas de viento máximas Velocidades máximas media en intervalos de 10 minutos

Datos horarios

Fecha y hora oficial Temperatura (ºC) Velocidad del viento (km/h) Dirección del viento Racha (km/h) Dirección de racha Precipitación (mm) Presión (hPa) Tendencia (hPa) Humedad (%)
2019-06-26 23:00:00 27.9 8 Sudoeste 15 Sur 0 -- -- 36
2019-06-26 22:00:00 29.6 6 Sur 21 Sudeste 0 -- -- 35
2019-06-26 21:00:00 32.9 13 Sudeste 32 Sudeste 0 -- -- 30
2019-06-26 20:00:00 34 17 Sudeste 36 Sudeste 0 -- -- 30
2019-06-26 19:00:00 35.5 24 Sudeste 45 Sudeste 0 -- -- 28
2019-06-26 18:00:00 36.1 27 Sudeste 50 Sudeste 0 -- -- 29
2019-06-26 17:00:00 36.1 30 Sudeste 51 Sudeste 0 -- -- 28
2019-06-26 16:00:00 35.3 32 Sudeste 48 Sudeste 0 -- -- 31
2019-06-26 15:00:00 34.2 34 Sudeste 48 Sudeste 0 -- -- 32
2019-06-26 14:00:00 33.1 26 Sudeste 43 Sudeste 0 -- -- 36
2019-06-26 13:00:00 31.9 24 Sudeste 44 Sudeste 0 -- -- 39
2019-06-26 12:00:00 29.9 26 Sudeste 39 Sudeste 0 -- -- 43
2019-06-26 11:00:00 28 19 Sudeste 42 Sur 0 -- -- 47
2019-06-26 10:00:00 26 28 Sudeste 42 Sudeste 0 -- -- 53
2019-06-26 09:00:00 23.8 12 Sudeste 27 Sur 0 -- -- 68
2019-06-26 08:00:00 21.6 3 Sur 16 Sudeste 0 -- -- 79
2019-06-26 07:00:00 20.1 10 Sur 19 Sur 0 -- -- 83
2019-06-26 06:00:00 20.5 11 Sur 20 Sudeste 0 -- -- 81
2019-06-26 05:00:00 21.1 11 Sur 19 Sudeste 0 -- -- 78
2019-06-26 04:00:00 21.7 15 Sudeste 27 Sur 0 -- -- 75
2019-06-26 03:00:00 22.8 15 Sur 28 Sur 0 -- -- 67
2019-06-26 02:00:00 23.9 12 Sur 33 Sur 0 -- -- 60
2019-06-26 01:00:00 25.7 23 Sur 40 Sudeste 0 -- -- 51
2019-06-26 00:00:00 27.2 12 Sur 38 Sudeste 0 -- -- 46
2019-06-25 23:00:00 28.6 14 Sudeste 23 Sudeste 0 -- -- 46
2019-06-25 22:00:00 29.9 10 Sudeste 21 Sudeste 0 -- -- 44
2019-06-25 21:00:00 31.9 14 Sudeste 30 Sudeste 0 -- -- 40
2019-06-25 20:00:00 33.6 23 Sudeste 35 Sudeste 0 -- -- 38
2019-06-25 19:00:00 34.6 21 Sudeste 36 Sudeste 0 -- -- 37
2019-06-25 18:00:00 34.6 17 Sudeste 31 Sudeste 0 -- -- 35
2019-06-25 17:00:00 34.3 12 Sudeste 25 Sudeste 0 -- -- 36
2019-06-25 16:00:00 31.9 15 Sudeste 28 Sudeste 0 -- -- 42
2019-06-25 15:00:00 32.1 12 Sudeste 32 Sudeste 0 -- -- 38
2019-06-25 14:00:00 30.6 14 Sudeste 26 Este 0 -- -- 42
2019-06-25 13:00:00 28.4 8 Este 17 Sudeste 0 -- -- 48
2019-06-25 12:00:00 26 4 Sudeste 8 Sudeste 0 -- -- 50
2019-06-25 11:00:00 23.4 3 Nordeste 10 Norte 0 -- -- 57
2019-06-25 10:00:00 21.8 6 Norte 10 Norte 0 -- -- 62
2019-06-25 09:00:00 20.1 7 Noroeste 13 Noroeste 0 -- -- 69
2019-06-25 08:00:00 19.3 8 Norte 14 Noroeste 0 -- -- 71
2019-06-25 07:00:00 18.8 5 Norte 9 Norte 0 -- -- 73
2019-06-25 06:00:00 19.3 4 Noroeste 9 Norte 0 -- -- 71
2019-06-25 05:00:00 19.5 2 Norte 8 Noroeste 0 -- -- 71
2019-06-25 04:00:00 20.1 4 Noroeste 12 Norte 0 -- -- 66
2019-06-25 03:00:00 20.9 10 Noroeste 20 Noroeste 0 -- -- 64
2019-06-25 02:00:00 22.5 10 Noroeste 23 Noroeste 0 -- -- 58
2019-06-25 01:00:00 24.1 9 Noroeste 20 Sudeste 0 -- -- 42
2019-06-25 00:00:00 25.1 10 Sur 22 Sudeste 0 -- -- 36
2019-06-24 23:00:00 26.3 15 Sudeste 27 Sudeste 0 -- -- 32
2019-06-24 22:00:00 27.4 13 Sudeste 31 Sudeste 0 -- -- 30
2019-06-24 21:00:00 29.5 19 Sudeste 44 Sudeste 0 -- -- 27
2019-06-24 20:00:00 31.2 28 Sudeste 46 Sudeste 0 -- -- 26
2019-06-24 19:00:00 32.5 24 Sudeste 40 Sudeste 0 -- -- 26
2019-06-24 18:00:00 32.4 20 Sudeste 38 Sudeste 0 -- -- 29
2019-06-24 17:00:00 30.4 21 Sudeste 33 Sudeste 0 -- -- 31
2019-06-24 16:00:00 30.2 18 Sudeste 31 Sudeste 0 -- -- 32
2019-06-24 15:00:00 28.2 21 Sudeste 40 Sudeste 0 -- -- 33
2019-06-24 14:00:00 28 25 Sudeste 44 Sudeste 0 -- -- 35
2019-06-24 13:00:00 28.9 30 Sudeste 47 Sudeste 0 -- -- 38
2019-06-24 12:00:00 28.7 25 Sudeste 48 Sudeste 0 -- -- 37
2019-06-24 11:00:00 26.2 24 Sudeste 44 Sudeste 0 -- -- 43
2019-06-24 10:00:00 23.9 22 Sudeste 33 Sudeste 0 -- -- 50
2019-06-24 09:00:00 22 17 Sudeste 27 Sudeste 0 -- -- 56
2019-06-24 08:00:00 19.5 7 Sur 13 Sur 0 -- -- 61
2019-06-24 07:00:00 17.3 6 Sudeste 11 Sur 0 -- -- 67
2019-06-24 06:00:00 17.3 7 Sur 8 Sur 0 -- -- 72
2019-06-24 05:00:00 17.3 4 Sudeste 8 Sur 0 -- -- 72
2019-06-24 04:00:00 18.3 6 Sudeste 11 Sudeste 0 -- -- 68
2019-06-24 03:00:00 19.8 5 Sudeste 12 Sudeste 0 -- -- 63
2019-06-24 02:00:00 21.8 10 Sudeste 20 Sudeste 0 -- -- 56
2019-06-24 01:00:00 24.3 6 Nordeste 18 Sudeste 0 -- -- 49
2019-06-24 00:00:00 26.3 14 Sudeste 19 Sudeste 0 -- -- 40
2019-06-23 23:00:00 27.5 10 Sudeste 24 Sudeste 0 -- -- 40
2019-06-23 22:00:00 28.8 12 Sudeste 24 Sudeste 0 -- -- 40
2019-06-23 21:00:00 30.3 13 Este 37 Este 0 -- -- 36
2019-06-23 20:00:00 31.6 14 Este 30 Este 0 -- -- 35
2019-06-23 19:00:00 32.7 17 Este 30 Este 0 -- -- 35
2019-06-23 18:00:00 33.4 16 Este 32 Este 0 -- -- 33
2019-06-23 17:00:00 33.9 22 Sudeste 33 Sudeste 0 -- -- 32
2019-06-23 16:00:00 34.6 15 Sudeste 35 Sudeste 0 -- -- 30
2019-06-23 15:00:00 33.3 18 Sudeste 29 Sudeste 0 -- -- 33
2019-06-23 14:00:00 31.5 17 Sudeste 31 Sudeste 0 -- -- 38
2019-06-23 13:00:00 30.2 19 Este 34 Sudeste 0 -- -- 42
2019-06-23 12:00:00 29 21 Sudeste 32 Sudeste 0 -- -- 45
2019-06-23 11:00:00 26.6 23 Sudeste 35 Sudeste 0 -- -- 51
2019-06-23 10:00:00 24.7 20 Sudeste 30 Sudeste 0 -- -- 60
2019-06-23 09:00:00 22.7 19 Sudeste 26 Sudeste 0 -- -- 64
2019-06-23 08:00:00 19.9 10 Sudeste 17 Sudeste 0 -- -- 75
2019-06-23 07:00:00 18.3 6 Sur 12 Sur 0 -- -- 79
2019-06-23 06:00:00 18.2 6 Sur 10 Sudeste 0 -- -- 78
2019-06-23 05:00:00 18 6 Sudeste 12 Sudeste 0 -- -- 78
2019-06-23 04:00:00 19.6 7 Sudeste 14 Sudeste 0 -- -- 74
2019-06-23 03:00:00 20.6 0 Calma 20 Sudeste 0 -- -- 66
2019-06-23 02:00:00 21.5 12 Sudeste 19 Sudeste 0 -- -- 63
2019-06-23 01:00:00 22.6 9 Sudeste 21 Sudeste 0 -- -- 54
2019-06-23 00:00:00 20.2 7 Sur 12 Sudoeste 0 -- -- 62
2019-06-22 23:00:00 21.7 6 Sudoeste 8 Sudoeste 0 -- -- 68
2019-06-22 22:00:00 24.7 6 Sudeste 9 Sudeste 0 -- -- 56
2019-06-22 21:00:00 27.6 8 Sudeste 12 Sur 0 -- -- 47
2019-06-22 20:00:00 29.8 6 Sur 21 Sur 0 -- -- 36
2019-06-22 19:00:00 31.1 8 Sudeste 27 Sudeste 0 -- -- 34
2019-06-22 18:00:00 31 8 Sudeste 21 Este 0 -- -- 35
2019-06-22 17:00:00 30.3 8 Este 27 Este 0 -- -- 35
2019-06-22 16:00:00 29.1 10 Sudeste 23 Sudeste 0 -- -- 36
2019-06-22 15:00:00 27.4 9 Este 21 Este 0 -- -- 41
2019-06-22 14:00:00 25.5 8 Sudeste 18 Sudeste 0 -- -- 42
2019-06-22 13:00:00 22.6 5 Este 14 Sudeste 0 -- -- 47
2019-06-22 12:00:00 20.5 5 Este 13 Este 0 -- -- 52
2019-06-22 11:00:00 18.4 3 Norte 11 Norte 0 -- -- 63
2019-06-22 10:00:00 16.9 5 Norte 13 Norte 0 -- -- 65
2019-06-22 09:00:00 15.2 9 Noroeste 15 Noroeste 0 -- -- 77
2019-06-22 08:00:00 12.8 6 Noroeste 12 Noroeste 0 -- -- 93
2019-06-22 07:00:00 9.3 3 Sudoeste 5 Oeste 0 -- -- 94
2019-06-22 06:00:00 9 3 Noroeste 6 Noroeste 0 -- -- 88
2019-06-22 05:00:00 10.4 0 Calma 10 Noroeste 0 -- -- 87
2019-06-22 04:00:00 11.2 5 Noroeste 11 Noroeste 0 -- -- 86
2019-06-22 03:00:00 11.5 7 Noroeste 13 Noroeste 0 -- -- 84
2019-06-22 02:00:00 12.9 0 Calma 14 Norte 0 -- -- 78
2019-06-22 01:00:00 14.6 4 Norte 30 Noroeste 0 -- -- 72
2019-06-22 00:00:00 15.3 14 Noroeste 29 Norte 0 -- -- 70
2019-06-21 23:00:00 16.2 16 Noroeste 24 Noroeste 0 -- -- 66
2019-06-21 22:00:00 17.2 13 Norte 27 Norte 0 -- -- 62
2019-06-21 21:00:00 19 16 Norte 30 Norte 0 -- -- 57
2019-06-21 20:00:00 20.7 15 Norte 32 Norte 0 -- -- 55
2019-06-21 19:00:00 21.7 18 Norte 32 Norte 0 -- -- 53
2019-06-21 18:00:00 22.8 18 Norte 36 Norte 0 -- -- 48
2019-06-21 17:00:00 22.7 19 Norte 39 Norte 0 -- -- 50
2019-06-21 16:00:00 22.5 21 Norte 35 Norte 0 -- -- 52
2019-06-21 15:00:00 21.9 17 Norte 30 Norte 0 -- -- 56
2019-06-21 14:00:00 21.7 18 Noroeste 32 Noroeste 0 -- -- 56
2019-06-21 13:00:00 20.6 18 Noroeste 35 Noroeste 0 -- -- 61
2019-06-21 12:00:00 20 19 Noroeste 32 Noroeste 0 -- -- 64
2019-06-21 11:00:00 18.8 18 Noroeste 31 Noroeste 0 -- -- 71
2019-06-21 10:00:00 17.5 18 Noroeste 31 Noroeste 0 -- -- 80
2019-06-21 09:00:00 16.9 15 Noroeste 30 Noroeste 0 -- -- 83
2019-06-21 08:00:00 15.5 12 Noroeste 19 Norte 0 -- -- 91
2019-06-21 07:00:00 14.5 8 Noroeste 23 Noroeste 0 -- -- 94
2019-06-21 06:00:00 14.9 13 Noroeste 23 Noroeste 0 -- -- 93
2019-06-21 05:00:00 15 12 Noroeste 25 Noroeste 0.2 -- -- 94
2019-06-21 04:00:00 15.2 11 Noroeste 27 Norte 0.2 -- -- 94
2019-06-21 03:00:00 15.3 18 Noroeste 27 Noroeste 0.2 -- -- 93
2019-06-21 02:00:00 15.7 12 Noroeste 20 Noroeste 0 -- -- 93
2019-06-21 01:00:00 15.9 14 Noroeste 31 Oeste 0 -- -- 91
2019-06-21 00:00:00 15.2 10 Noroeste 20 Noroeste 0 -- -- 94
2019-06-20 23:00:00 15.6 10 Norte 28 Noroeste 0.2 -- -- 92
2019-06-20 22:00:00 16.2 17 Noroeste 35 Noroeste 0 -- -- 89
2019-06-20 21:00:00 16.7 13 Norte 32 Norte 0.4 -- -- 89
2019-06-20 20:00:00 17.6 14 Noroeste 32 Norte 3.6 -- -- 87
2019-06-20 19:00:00 19.9 21 Noroeste 39 Noroeste 0 -- -- 70
2019-06-20 18:00:00 21.9 20 Norte 36 Noroeste 0 -- -- 58
2019-06-20 17:00:00 22.7 19 Noroeste 36 Norte 0 -- -- 55
2019-06-20 16:00:00 24.7 21 Noroeste 39 Norte 0 -- -- 50
2019-06-20 15:00:00 26.2 19 Noroeste 34 Noroeste 0 -- -- 48
2019-06-20 14:00:00 25 19 Noroeste 36 Noroeste 0 -- -- 50
2019-06-20 13:00:00 23.5 17 Noroeste 29 Noroeste 0 -- -- 55
2019-06-20 12:00:00 22.5 15 Noroeste 26 Noroeste 0 -- -- 58
2019-06-20 11:00:00 21.1 15 Noroeste 27 Noroeste 0 -- -- 61
2019-06-20 10:00:00 19.8 17 Noroeste 28 Noroeste 0 -- -- 65
2019-06-20 09:00:00 19.1 17 Noroeste 31 Noroeste 0 -- -- 69
2019-06-20 08:00:00 17.9 16 Noroeste 28 Noroeste 0 -- -- 74
2019-06-20 07:00:00 16.9 12 Noroeste 26 Noroeste 0 -- -- 77
2019-06-20 06:00:00 16.9 12 Noroeste 23 Noroeste 0 -- -- 77
2019-06-20 05:00:00 16.4 12 Noroeste 23 Noroeste 0 -- -- 78
2019-06-20 04:00:00 16.7 12 Noroeste 21 Noroeste 0 -- -- 77
2019-06-20 03:00:00 17.2 10 Norte 25 Noroeste 0 -- -- 75
2019-06-20 02:00:00 18.3 14 Norte 32 Noroeste 0 -- -- 71
2019-06-20 01:00:00 19.2 19 Noroeste 36 Noroeste 0 -- -- 69
2019-06-20 00:00:00 19.9 21 Noroeste 34 Noroeste 0 -- -- 67
2019-06-19 23:00:00 21.7 9 Norte 20 Norte 0 -- -- 66
2019-06-19 22:00:00 23.3 6 Sur 26 Noroeste 0 -- -- 54
2019-06-19 21:00:00 26.3 3 Norte 15 Nordeste 0 -- -- 44
2019-06-19 20:00:00 27.5 8 Nordeste 18 Nordeste 0 -- -- 38
2019-06-19 19:00:00 28 9 Nordeste 21 Nordeste 0 -- -- 35
2019-06-19 18:00:00 28.8 12 Nordeste 24 Norte 0 -- -- 35
2019-06-19 17:00:00 28.9 8 Norte 19 Norte 0 -- -- 37
2019-06-19 16:00:00 28.3 9 Nordeste 19 Este 0 -- -- 37
2019-06-19 15:00:00 28.2 8 Norte -- -- -- -- -- 39
2019-06-19 14:00:00 28 8 Este 15 Este 0 -- -- 38
2019-06-19 13:00:00 27 5 Este -- -- -- -- -- 38
2019-06-19 12:00:00 -- -- -- -- -- -- -- -- --
2019-06-19 11:00:00 -- -- -- -- -- -- -- -- --
2019-06-19 10:00:00 23.1 3 Noroeste 7 Nordeste 0 -- -- 46
2019-06-19 09:00:00 20.9 3 Este 5 Sudeste 0 -- -- 48
2019-06-19 08:00:00 15.8 4 Sur 9 Sur 0 -- -- 67
2019-06-19 07:00:00 14.3 3 Noroeste 12 Noroeste 0 -- -- 69
2019-06-19 06:00:00 13.4 5 Noroeste 9 Noroeste 0 -- -- 70
2019-06-19 05:00:00 13.4 6 Sudoeste 12 Sudoeste 0 -- -- 73
2019-06-19 04:00:00 15.7 3 Sur 15 Este 0 -- -- 60
2019-06-19 03:00:00 17.6 9 Sur 19 Sudeste 0 -- -- 49
2019-06-19 02:00:00 17.4 4 Oeste 15 Sudoeste 0 -- -- 56
2019-06-19 01:00:00 21.7 6 Nordeste 20 Nordeste 0 -- -- 46
2019-06-19 00:00:00 23 6 Nordeste 21 Noroeste 0 -- -- 39
2019-06-18 23:00:00 20.6 15 Sudoeste 18 Sudoeste 0 -- -- 35
2019-06-18 22:00:00 25.9 12 Sudoeste 30 Sudoeste 0 -- -- 26
2019-06-18 21:00:00 30.2 16 Sudoeste 40 Sudoeste 0 -- -- 19
2019-06-18 20:00:00 32.5 23 Sudoeste 49 Sudoeste 0 -- -- 16
2019-06-18 19:00:00 33.9 27 Sudoeste 48 Sudoeste 0 -- -- 14
2019-06-18 18:00:00 34.9 22 Sudoeste 49 Sur 0 -- -- 17
2019-06-18 17:00:00 34.8 29 Sudoeste 48 Sur 0 -- -- 16
2019-06-18 16:00:00 32.4 25 Sur 50 Sur 0 -- -- 19
2019-06-18 15:00:00 32.5 30 Sur 48 Sur 0 -- -- 21
2019-06-18 14:00:00 32.7 22 Sudeste 39 Sudeste 0 -- -- 27
2019-06-18 13:00:00 30.8 23 Sudeste 37 Sudeste 0 -- -- 30
2019-06-18 12:00:00 29.1 20 Sudeste 36 Sudeste 0 -- -- 33
2019-06-18 11:00:00 26.6 23 Sudeste 35 Sudeste 0 -- -- 35
2019-06-18 10:00:00 25 18 Sudeste 31 Sudeste 0 -- -- 38
2019-06-18 09:00:00 21.8 11 Sur 21 Sur 0 -- -- 47
2019-06-18 08:00:00 18.9 8 Sur 14 Sur 0 -- -- 59
2019-06-18 07:00:00 16.6 10 Sur 14 Sur 0 -- -- 69
2019-06-18 06:00:00 17.5 5 Nordeste 15 Sudeste 0 -- -- 67
2019-06-18 05:00:00 19 8 Este 12 Sudeste 0 -- -- 63
2019-06-18 04:00:00 20.7 7 Sudeste 30 Sudeste 0 -- -- 56
2019-06-18 03:00:00 22.2 18 Sudeste 28 Sudeste 0 -- -- 52
2019-06-18 02:00:00 24 13 Sudeste 29 Sudeste 0 -- -- 44
2019-06-18 01:00:00 24.7 21 Sudeste 33 Sudeste 0 -- -- 43
2019-06-18 00:00:00 25.3 15 Sudeste 29 Sudeste 0 -- -- 38
2019-06-17 23:00:00 24 15 Sudeste 32 Sudeste 0 -- -- 38
2019-06-17 22:00:00 25.8 6 Sudeste 8 Sur 0 -- -- 46
2019-06-17 21:00:00 28.9 7 Sudeste 17 Sur 0 -- -- 32
2019-06-17 20:00:00 30.7 9 Sur 24 Sudeste 0 -- -- 25
2019-06-17 19:00:00 33.3 14 Sudeste 30 Sudeste 0 -- -- 20
2019-06-17 18:00:00 33.6 13 Sudeste 26 Este 0 -- -- 21
2019-06-17 17:00:00 33.4 10 Este 49 Sudeste 0 -- -- 23
2019-06-17 16:00:00 33.2 12 Sudeste 27 Este 0 -- -- 25
2019-06-17 15:00:00 32.2 12 Este 26 Sudeste 0 -- -- 29
2019-06-17 14:00:00 30.4 12 Este 27 Este 0 -- -- 33
2019-06-17 13:00:00 28.3 14 Este 24 Sudeste 0 -- -- 36
2019-06-17 12:00:00 26.4 9 Sudeste 25 Este 0 -- -- 42
2019-06-17 11:00:00 23.5 6 Este 15 Este 0 -- -- 52
2019-06-17 10:00:00 21.3 4 Nordeste 12 Noroeste 0 -- -- 60
2019-06-17 09:00:00 19 6 Noroeste 13 Noroeste 0 -- -- 63
2019-06-17 08:00:00 14.1 3 Oeste 9 Sudoeste 0 -- -- 81
2019-06-17 07:00:00 10.4 6 Sudoeste 9 Sudoeste 0 -- -- 88
2019-06-17 06:00:00 10.7 2 Oeste 6 Sudoeste 0 -- -- 86
2019-06-17 05:00:00 11.4 2 Oeste 6 Sur 0 -- -- 84
2019-06-17 04:00:00 12 4 Sur 9 Sudoeste 0 -- -- 82
2019-06-17 03:00:00 13.2 4 Oeste 6 Oeste 0 -- -- 79
2019-06-17 02:00:00 14.4 4 Sur 9 Sudoeste 0 -- -- 75
2019-06-17 01:00:00 15.6 5 Oeste 11 Sudeste 0 -- -- 72
2019-06-17 00:00:00 17 4 Sur 12 Nordeste 0 -- -- 67
2019-06-16 23:00:00 18.5 4 Sudoeste 8 Sur 0 -- -- 65
2019-06-16 22:00:00 22.1 0 Calma 6 Sudeste 0 -- -- 53
2019-06-16 21:00:00 25.5 5 Este 13 Este 0 -- -- 46
2019-06-16 20:00:00 27.7 9 Este 18 Este 0 -- -- 32
2019-06-16 19:00:00 28.6 9 Este 17 Este 0 -- -- 27
2019-06-16 18:00:00 28.8 12 Este 19 Este 0 -- -- 27
2019-06-16 17:00:00 29.1 7 Nordeste 23 Este 0 -- -- 24
2019-06-16 16:00:00 29.3 11 Este 24 Sudeste 0 -- -- 30
2019-06-16 15:00:00 28 13 Este 27 Este 0 -- -- 30
2019-06-16 14:00:00 26.6 14 Sudeste 27 Este 0 -- -- 35
2019-06-16 13:00:00 23.9 9 Este 23 Sudeste 0 -- -- 38
2019-06-16 12:00:00 21.3 5 Este 13 Este 0 -- -- 48
2019-06-16 11:00:00 19.1 4 Nordeste 10 Nordeste 0 -- -- 54
2019-06-16 10:00:00 16.9 3 Norte 15 Norte 0 -- -- 63
2019-06-16 09:00:00 14.9 10 Norte 15 Norte 0 -- -- 69
2019-06-16 08:00:00 12 4 Oeste 15 Noroeste 0 -- -- 79
2019-06-16 07:00:00 7.4 2 Sudoeste 5 Oeste 0 -- -- 89
2019-06-16 06:00:00 8.2 2 Sudoeste 7 Noroeste 0 -- -- 84
2019-06-16 05:00:00 9.4 6 Noroeste 9 Noroeste 0 -- -- 83
2019-06-16 04:00:00 10.2 5 Norte 9 Sudeste 0 -- -- 82
2019-06-16 03:00:00 12 5 Noroeste 13 Noroeste 0 -- -- 73
2019-06-16 02:00:00 13 3 Noroeste 13 Noroeste 0 -- -- 69
2019-06-16 01:00:00 14.9 6 Noroeste 22 Noroeste 0 -- -- 62
2019-06-16 00:00:00 15.6 12 Noroeste 24 Noroeste 0 -- -- 59
2019-06-15 23:00:00 16.4 13 Noroeste 19 Noroeste 0 -- -- 56
2019-06-15 22:00:00 17.7 8 Noroeste 23 Norte 0 -- -- 50
2019-06-15 21:00:00 19.8 13 Norte 29 Nordeste 0 -- -- 46
2019-06-15 20:00:00 21.4 17 Norte 34 Norte 0 -- -- 42
2019-06-15 19:00:00 22.5 18 Norte 32 Nordeste 0 -- -- 41
2019-06-15 18:00:00 22.3 20 Nordeste 38 Nordeste 0 -- -- 40
2019-06-15 17:00:00 24.1 16 Norte 31 Norte 0 -- -- 38
2019-06-15 16:00:00 24.4 15 Norte 32 Noroeste 0 -- -- 35
2019-06-15 15:00:00 23.9 14 Norte 29 Norte 0 -- -- 35
2019-06-15 14:00:00 23.1 15 Noroeste 30 Noroeste 0 -- -- 37
2019-06-15 13:00:00 21.7 12 Norte 31 Norte 0 -- -- 41
2019-06-15 12:00:00 20.2 18 Noroeste 27 Norte 0 -- -- 46
2019-06-15 11:00:00 18.8 18 Noroeste 32 Noroeste 0 -- -- 50
2019-06-15 10:00:00 17 14 Norte 23 Noroeste 0 -- -- 58
2019-06-15 09:00:00 15.5 12 Norte 19 Norte 0 -- -- 66
2019-06-15 08:00:00 14 6 Noroeste 17 Noroeste 0 -- -- 73
2019-06-15 07:00:00 12.3 8 Noroeste 15 Noroeste 0 -- -- 80
2019-06-15 06:00:00 13.1 8 Noroeste 19 Noroeste 0 -- -- 78
2019-06-15 05:00:00 14 12 Noroeste 23 Noroeste 0 -- -- 74
2019-06-15 04:00:00 15 14 Noroeste 28 Noroeste 0 -- -- 71
2019-06-15 03:00:00 15.2 16 Noroeste 28 Noroeste 0 -- -- 71
2019-06-15 02:00:00 15.8 16 Noroeste 36 Noroeste 0 -- -- 72
2019-06-15 01:00:00 15.5 14 Noroeste 25 Noroeste 0 -- -- 74
2019-06-15 00:00:00 15.2 11 Norte 26 Norte 0 -- -- 75
2019-06-14 23:00:00 16 14 Noroeste 30 Norte 0 -- -- 73
2019-06-14 22:00:00 17.4 18 Noroeste 36 Noroeste 0 -- -- 67
2019-06-14 21:00:00 21.5 18 Noroeste 33 Noroeste 0 -- -- 56
2019-06-14 20:00:00 26.4 9 Noroeste 22 Noroeste 0 -- -- 39
2019-06-14 19:00:00 26.8 9 Norte 16 Nordeste 0 -- -- 41
2019-06-14 18:00:00 26.7 10 Nordeste 19 Este 0 -- -- 40
2019-06-14 17:00:00 26.3 5 Nordeste 18 Sur 0 -- -- 42
2019-06-14 16:00:00 24.6 7 Nordeste 22 Este 0 -- -- 43
2019-06-14 15:00:00 23.7 11 Este 22 Este 0 -- -- 43
2019-06-14 14:00:00 22.6 9 Este 19 Este 0 -- -- 41
2019-06-14 13:00:00 20.3 8 Este 14 Este 0 -- -- 55
2019-06-14 12:00:00 17.1 5 Norte 11 Noroeste 0 -- -- 66
2019-06-14 11:00:00 15.9 7 Noroeste 14 Noroeste 0 -- -- 71
2019-06-14 10:00:00 15.1 9 Noroeste 17 Noroeste 0 -- -- 75
2019-06-14 09:00:00 14.2 7 Norte 18 Norte 0 -- -- 79
2019-06-14 08:00:00 13.9 12 Noroeste 20 Noroeste 0 -- -- 79
2019-06-14 07:00:00 12.4 5 Noroeste 13 Noroeste 0 -- -- 85
2019-06-14 06:00:00 12.7 5 Noroeste 17 Noroeste 0 -- -- 83
2019-06-14 05:00:00 13.8 8 Noroeste 21 Noroeste 0 -- -- 78
2019-06-14 04:00:00 14.3 12 Noroeste 23 Noroeste 0 -- -- 76
2019-06-14 03:00:00 15 12 Noroeste 28 Noroeste 0 -- -- 73
2019-06-14 02:00:00 15.7 13 Noroeste 30 Noroeste 0 -- -- 70
2019-06-14 01:00:00 16.8 15 Noroeste 29 Noroeste 0 -- -- 66
2019-06-14 00:00:00 19.8 5 Nordeste 27 Sur 0 -- -- 50
2019-06-13 23:00:00 20.6 15 Sudeste 43 Sudeste 0 -- -- 55
2019-06-13 22:00:00 21.7 29 Sudeste 50 Sudeste 0 -- -- 46
2019-06-13 21:00:00 23.5 33 Sudeste 59 Sudeste 0 -- -- 42
2019-06-13 20:00:00 25.6 31 Sudeste 49 Sudeste 0 -- -- 41
2019-06-13 19:00:00 27.1 28 Sudeste 47 Sudeste 0 -- -- 38
2019-06-13 18:00:00 28 33 Sudeste 51 Sudeste 0 -- -- 38
2019-06-13 17:00:00 26.9 35 Sudeste 56 Sudeste 0 -- -- 41
2019-06-13 16:00:00 27.1 33 Sudeste 51 Sudeste 0 -- -- 40
2019-06-13 15:00:00 26.3 31 Sudeste 45 Sudeste 0 -- -- 43
2019-06-13 14:00:00 25.4 30 Sudeste 42 Sudeste 0 -- -- 44
2019-06-13 13:00:00 23.1 25 Sudeste 42 Sudeste 0 -- -- 49
2019-06-13 12:00:00 22.1 28 Sudeste 44 Sudeste 0 -- -- 49
2019-06-13 11:00:00 19.2 28 Sudeste 41 Sudeste 0 -- -- 54
2019-06-13 10:00:00 16.1 17 Sudeste 28 Sudeste 0 -- -- 60
2019-06-13 09:00:00 13.7 15 Sudeste 24 Sudeste 0 -- -- 68
2019-06-13 08:00:00 11 3 Nordeste 4 Nordeste 0 -- -- 90
2019-06-13 07:00:00 8.3 0 Calma 5 Sur 0 -- -- 93
2019-06-13 06:00:00 7.5 3 Sudoeste 8 Sudoeste 0 -- -- 91
2019-06-13 05:00:00 7.7 3 Sudoeste 10 Sudoeste 0 -- -- 89
2019-06-13 04:00:00 9 2 Oeste 10 Nordeste 0 -- -- 83
2019-06-13 03:00:00 10.7 3 Norte 14 Noroeste 0 -- -- 79
2019-06-13 02:00:00 12.3 10 Noroeste 22 Norte 0 -- -- 72
2019-06-13 01:00:00 12.9 17 Noroeste 28 Noroeste 0 -- -- 70
2019-06-13 00:00:00 13.7 10 Noroeste 24 Noroeste 0 -- -- 68
2019-06-12 23:00:00 14.6 10 Noroeste 17 Noroeste 0 -- -- 66
2019-06-12 22:00:00 17.2 0 Calma 5 Nordeste 0 -- -- 55
2019-06-12 21:00:00 20.6 3 Nordeste 9 Este 0 -- -- 42
2019-06-12 20:00:00 21.5 4 Nordeste 13 Nordeste 0 -- -- 37
2019-06-12 19:00:00 22.2 7 Este 19 Este 0 -- -- 33
2019-06-12 18:00:00 22.6 9 Este 23 Este 0 -- -- 34
2019-06-12 17:00:00 22.2 12 Nordeste 24 Este 0 -- -- 31
2019-06-12 16:00:00 22.2 15 Este 34 Este 0 -- -- 34
2019-06-12 15:00:00 21.1 5 Este 31 Este 0 -- -- 37
2019-06-12 14:00:00 20.2 12 Este 26 Este 0 -- -- 40
2019-06-12 13:00:00 19.2 9 Sudeste 27 Sudeste 0 -- -- 41
2019-06-12 12:00:00 17.9 10 Este 26 Sudeste 0 -- -- 47
2019-06-12 11:00:00 16 8 Este 17 Este 0 -- -- 49
2019-06-12 10:00:00 14.1 6 Este 12 Este 0 -- -- 58
2019-06-12 09:00:00 11.6 4 Nordeste 8 Este 0 -- -- 73
2019-06-12 08:00:00 8.7 6 Nordeste 10 Nordeste 0 -- -- 90
2019-06-12 07:00:00 5.7 0 Calma 8 Sur 0 -- -- 96
2019-06-12 06:00:00 4.8 5 Sur 7 Sur 0 -- -- 95
2019-06-12 05:00:00 4.6 3 Sudeste 5 Sudeste 0 -- -- 92
2019-06-12 04:00:00 5 3 Sur 8 Sur 0 -- -- 90
2019-06-12 03:00:00 5.9 4 Sur 7 Sur 0 -- -- 88
2019-06-12 02:00:00 7.1 3 Sudoeste 8 Oeste 0 -- -- 86
2019-06-12 01:00:00 8.1 2 Sudoeste 6 Norte 0 -- -- 79
2019-06-12 00:00:00 10.3 4 Norte 10 Norte 0 -- -- 71
2019-06-11 23:00:00 11.8 4 Norte 15 Noroeste 0 -- -- 66
2019-06-11 22:00:00 13 10 Noroeste 30 Noroeste 0 -- -- 59
2019-06-11 21:00:00 14.2 19 Norte 36 Noroeste 0 -- -- 56
2019-06-11 20:00:00 15.6 17 Noroeste 36 Noroeste 0 -- -- 50
2019-06-11 19:00:00 16.6 17 Norte 38 Noroeste 0 -- -- 50
2019-06-11 18:00:00 18.5 20 Noroeste 41 Norte 0 -- -- 39
2019-06-11 17:00:00 17.3 27 Noroeste 45 Noroeste 0 -- -- 47
2019-06-11 16:00:00 17.8 23 Norte 43 Norte 0 -- -- 47
2019-06-11 15:00:00 18.1 23 Norte 38 Noroeste 0 -- -- 45
2019-06-11 14:00:00 16.4 22 Noroeste 45 Oeste 0 -- -- 51
2019-06-11 13:00:00 16.5 26 Noroeste 40 Norte 0.2 -- -- 51
2019-06-11 12:00:00 15.3 18 Noroeste 31 Norte 0 -- -- 67
2019-06-11 11:00:00 13.3 15 Noroeste 26 Noroeste 0 -- -- 69
2019-06-11 10:00:00 12.4 15 Noroeste 27 Noroeste 0 -- -- 79
2019-06-11 09:00:00 11.2 8 Noroeste 16 Noroeste 0.2 -- -- 93
2019-06-11 08:00:00 10.3 8 Noroeste 19 Noroeste 0.8 -- -- 95
2019-06-11 07:00:00 10.1 13 Noroeste 20 Noroeste 0 -- -- 93
2019-06-11 06:00:00 9.9 5 Noroeste 15 Noroeste 0.2 -- -- 95
2019-06-11 05:00:00 9.9 9 Noroeste 20 Noroeste 0.2 -- -- 91
2019-06-11 04:00:00 10.7 12 Noroeste 24 Noroeste 0 -- -- 83
2019-06-11 03:00:00 12 6 Norte 13 Noroeste 0 -- -- 75
2019-06-11 02:00:00 12 6 Norte 14 Noroeste 0 -- -- 72
2019-06-11 01:00:00 12 6 Noroeste 23 Norte 0 -- -- 75
2019-06-11 00:00:00 12.8 13 Norte 22 Norte 0 -- -- 68
2019-06-10 23:00:00 13.6 13 Norte 30 Norte 0 -- -- 60
2019-06-10 22:00:00 14.4 13 Norte 26 Norte 0 -- -- 54
2019-06-10 21:00:00 15.1 14 Norte 42 Norte 0 -- -- 55
2019-06-10 20:00:00 16.7 23 Norte 46 Norte 0 -- -- 51
2019-06-10 19:00:00 18.8 23 Norte 41 Norte 0 -- -- 47
2019-06-10 18:00:00 20 18 Norte 33 Norte 0 -- -- 42
2019-06-10 17:00:00 19.8 19 Norte 34 Norte 0 -- -- 45
2019-06-10 16:00:00 20.2 21 Noroeste 41 Noroeste 0 -- -- 43
2019-06-10 15:00:00 19.4 22 Noroeste 40 Norte 0 -- -- 47
2019-06-10 14:00:00 18.1 24 Noroeste 40 Noroeste 0 -- -- 51
2019-06-10 13:00:00 15.5 23 Norte 37 Noroeste 0 -- -- 58
2019-06-10 12:00:00 16.3 21 Noroeste 37 Norte 0 -- -- 54
2019-06-10 11:00:00 17.2 25 Noroeste 39 Noroeste 0 -- -- 52
2019-06-10 10:00:00 14.4 20 Noroeste 32 Noroeste 0 -- -- 62
2019-06-10 09:00:00 13.6 15 Noroeste 34 Noroeste 0 -- -- 67
2019-06-10 08:00:00 13.6 16 Noroeste 31 Noroeste 0 -- -- 70
2019-06-10 07:00:00 13.4 17 Noroeste 30 Noroeste 0 -- -- 70
2019-06-10 06:00:00 13.3 15 Noroeste 25 Noroeste 0 -- -- 71
2019-06-10 05:00:00 13.3 11 Noroeste 30 Noroeste 0 -- -- 74
2019-06-10 04:00:00 13.9 13 Noroeste 28 Noroeste 0 -- -- 75
2019-06-10 03:00:00 14 16 Noroeste 33 Noroeste 0 -- -- 72
2019-06-10 02:00:00 14.7 18 Noroeste 34 Noroeste 0 -- -- 71
2019-06-10 01:00:00 15.1 19 Noroeste 39 Noroeste 0 -- -- 71
2019-06-10 00:00:00 15.3 16 Noroeste 31 Norte 0 -- -- 72
2019-06-09 23:00:00 15.4 17 Noroeste 32 Noroeste 0 -- -- 73
2019-06-09 22:00:00 15.7 21 Norte 40 Norte 0 -- -- 73
2019-06-09 21:00:00 16.4 22 Norte 41 Norte 0 -- -- 73
2019-06-09 20:00:00 18.7 21 Norte 44 Norte 0 -- -- 64
2019-06-09 19:00:00 22.2 28 Norte 50 Norte 0 -- -- 53
2019-06-09 18:00:00 26.1 23 Norte 45 Norte 0 -- -- 42
2019-06-09 17:00:00 27.7 12 Noroeste 23 Noroeste 0 -- -- 33
2019-06-09 16:00:00 26.6 6 Norte 27 Nordeste 0 -- -- 35
2019-06-09 15:00:00 25.7 7 Norte 17 Norte 0 -- -- 37
2019-06-09 14:00:00 24.1 5 Noroeste 13 Noroeste 0 -- -- 39
2019-06-09 13:00:00 22.4 6 Norte 14 Norte 0 -- -- 41
2019-06-09 12:00:00 20.5 4 Norte 12 Norte 0 -- -- 47
2019-06-09 11:00:00 18.9 5 Norte 10 Norte 0 -- -- 55
2019-06-09 10:00:00 18.1 4 Norte 8 Nordeste 0 -- -- 58
2019-06-09 09:00:00 16.8 3 Nordeste 5 Este 0 -- -- 61
2019-06-09 08:00:00 14 2 Sur 8 Sudeste 0 -- -- 77
2019-06-09 07:00:00 12.3 5 Sudeste 8 Sudeste 0 -- -- 78
2019-06-09 06:00:00 13.1 2 Sudeste 9 Sur 0 -- -- 78
2019-06-09 05:00:00 13.4 4 Sudoeste 7 Sudeste 0 -- -- 79
2019-06-09 04:00:00 13.5 6 Sur 9 Este 0 -- -- 74
2019-06-09 03:00:00 14.5 0 Calma 9 Sudeste 0 -- -- 69
2019-06-09 02:00:00 16.2 5 Este 13 Este 0 -- -- 59
2019-06-09 01:00:00 16.9 11 Este 16 Este 0 -- -- 55
2019-06-09 00:00:00 18.9 3 Sudoeste 25 Sudeste 0 -- -- 52
2019-06-08 23:00:00 20.6 17 Sudeste 30 Sudeste 0 -- -- 45
2019-06-08 22:00:00 21.8 20 Sudeste 33 Sudeste 0 -- -- 43
2019-06-08 21:00:00 23 19 Sudeste 31 Sudeste 0 -- -- 40
2019-06-08 20:00:00 24.4 12 Sudeste 30 Sudeste 0 -- -- 40
2019-06-08 19:00:00 25.9 14 Sudeste 30 Este 0 -- -- 36
2019-06-08 18:00:00 26.1 16 Sudeste 31 Sudeste 0 -- -- 33
2019-06-08 17:00:00 26.2 17 Sudeste 31 Sudeste 0 -- -- 33
2019-06-08 16:00:00 25.5 18 Sudeste 37 Sudeste 0 -- -- 33
2019-06-08 15:00:00 24.4 23 Sudeste 38 Sudeste 0 -- -- 35
2019-06-08 14:00:00 22.5 8 Este 23 Este 0 -- -- 40
2019-06-08 13:00:00 20.8 6 Sur 19 Este 0 -- -- 40
2019-06-08 12:00:00 18.2 3 Noroeste 13 Norte 0 -- -- 47
2019-06-08 11:00:00 16.5 6 Norte 18 Norte 0 -- -- 51
2019-06-08 10:00:00 15 11 Noroeste 20 Norte 0 -- -- 59
2019-06-08 09:00:00 13.1 9 Norte 15 Norte 0 -- -- 71
2019-06-08 08:00:00 10.3 6 Norte 13 Noroeste 0 -- -- 82
2019-06-08 07:00:00 7.6 4 Norte 13 Noroeste 0 -- -- 90
2019-06-08 06:00:00 7.9 4 Noroeste 12 Oeste 0 -- -- 86
2019-06-08 05:00:00 8.7 6 Noroeste 11 Oeste 0 -- -- 83
2019-06-08 04:00:00 9.4 6 Noroeste 15 Oeste 0 -- -- 78
2019-06-08 03:00:00 10.4 9 Noroeste 20 Noroeste 0 -- -- 74
2019-06-08 02:00:00 11.1 14 Noroeste 28 Noroeste 0 -- -- 68
2019-06-08 01:00:00 11.4 12 Noroeste 21 Noroeste 0 -- -- 69
2019-06-08 00:00:00 12.3 9 Noroeste 22 Noroeste 0 -- -- 67
2019-06-07 23:00:00 13.7 11 Noroeste 22 Noroeste 0 -- -- 60
2019-06-07 22:00:00 15.2 14 Norte 33 Norte 0 -- -- 56
2019-06-07 21:00:00 17.3 17 Norte 30 Nordeste 0 -- -- 51
2019-06-07 20:00:00 20.5 6 Noroeste 15 Noroeste 0 -- -- 33
2019-06-07 19:00:00 21 10 Norte 20 Norte 0 -- -- 30
2019-06-07 18:00:00 21 6 Norte 19 Norte 0 -- -- 32
2019-06-07 17:00:00 21.2 7 Norte 17 Noroeste 0 -- -- 32
2019-06-07 16:00:00 20.5 3 Este 13 Norte 0 -- -- 38
2019-06-07 15:00:00 21.6 8 Norte 18 Noroeste 0 -- -- 34
2019-06-07 14:00:00 19.5 8 Noroeste 22 Noroeste 0 -- -- 41
2019-06-07 13:00:00 19.6 8 Nordeste 28 Este 0 -- -- 35
2019-06-07 12:00:00 19.2 8 Nordeste 24 Este 0 -- -- 40
2019-06-07 11:00:00 19 6 Sudeste 21 Nordeste 0 -- -- 41
2019-06-07 10:00:00 17.6 7 Sudoeste 24 Sur 0 -- -- 39
2019-06-07 09:00:00 16.3 6 Sudoeste 14 Sur 0 -- -- 52
2019-06-07 08:00:00 14 2 Nordeste 13 Sudoeste 0 -- -- 63
2019-06-07 07:00:00 12.9 11 Sur 22 Sudoeste 0 -- -- 64
2019-06-07 06:00:00 12.9 9 Sudeste 10 Sudeste 0 -- -- 72
2019-06-07 05:00:00 13.4 6 Noroeste 30 Noroeste 0 -- -- 63
2019-06-07 04:00:00 14 18 Noroeste 43 Oeste 0 -- -- 66
2019-06-07 03:00:00 17.4 26 Sudeste 43 Sudeste 0 -- -- 60
2019-06-07 02:00:00 18.1 28 Sudeste 49 Sudeste 0 -- -- 56
2019-06-07 01:00:00 18.7 30 Sudeste 42 Sudeste 0 -- -- 54
2019-06-07 00:00:00 18.3 14 Sudeste 30 Sudeste 0 -- -- 56
2019-06-06 23:00:00 19.5 24 Sudeste 37 Sudeste 0 -- -- 50
2019-06-06 22:00:00 21.2 27 Sudeste 38 Sudeste 0 -- -- 44
2019-06-06 21:00:00 24.4 20 Sur 41 Sur 0 -- -- 27
2019-06-06 20:00:00 25.8 18 Sur 49 Sudoeste 0 -- -- 26
2019-06-06 19:00:00 26.1 28 Sur 47 Sudoeste 0 -- -- 26
2019-06-06 18:00:00 24.1 21 Sudeste 50 Sudeste 0 -- -- 38
2019-06-06 17:00:00 23.7 29 Sudeste 44 Sudeste 0 -- -- 39
2019-06-06 16:00:00 24.4 31 Sudeste 48 Sudeste 0 -- -- 38
2019-06-06 15:00:00 22.9 31 Sudeste 44 Sudeste 0 -- -- 45
2019-06-06 14:00:00 21.8 26 Sudeste 45 Sudeste 0 -- -- 47
2019-06-06 13:00:00 20.4 21 Sudeste 35 Este 0 -- -- 53
2019-06-06 12:00:00 19.1 17 Sudeste 29 Sudeste 0 -- -- 56
2019-06-06 11:00:00 17.2 12 Sudeste 19 Sudeste 0 -- -- 63
2019-06-06 10:00:00 14.2 8 Este 13 Este 0 -- -- 73
2019-06-06 09:00:00 12.7 4 Este 7 Nordeste 0 -- -- 80
2019-06-06 08:00:00 10.7 3 Nordeste 6 Nordeste 0 -- -- 97
2019-06-06 07:00:00 9.2 0 Calma 3 Sudeste 0 -- -- 96
2019-06-06 06:00:00 9 0 Calma 4 Sudoeste 0 -- -- 96
2019-06-06 05:00:00 8.4 2 Sudoeste 9 Sur 0 -- -- 93
2019-06-06 04:00:00 9.2 4 Noroeste 12 Oeste 0 -- -- 92
2019-06-06 03:00:00 9.5 10 Oeste 13 Oeste 0 -- -- 91
2019-06-06 02:00:00 10.1 7 Noroeste 15 Noroeste 0 -- -- 86
2019-06-06 01:00:00 11.2 7 Noroeste 15 Noroeste 0 -- -- 81
2019-06-06 00:00:00 11.6 6 Noroeste 18 Noroeste 0 -- -- 77
2019-06-05 23:00:00 12.8 8 Noroeste 18 Norte 0 -- -- 72
2019-06-05 22:00:00 13.2 9 Norte 23 Norte 0 -- -- 69
2019-06-05 21:00:00 14.4 7 Norte 23 Norte 0 -- -- 65
2019-06-05 20:00:00 16.1 12 Norte 29 Noroeste 0 -- -- 61
2019-06-05 19:00:00 17.5 15 Noroeste 31 Noroeste 0 -- -- 56
2019-06-05 18:00:00 18.2 19 Noroeste 33 Noroeste 0 -- -- 56
2019-06-05 17:00:00 16 22 Noroeste 39 Norte 0 -- -- 67
2019-06-05 16:00:00 18.2 15 Norte 33 Noroeste 0 -- -- 59
2019-06-05 15:00:00 16.5 19 Noroeste 30 Norte 0 -- -- 67
2019-06-05 14:00:00 14.5 16 Noroeste 32 Oeste 0 -- -- 73
2019-06-05 13:00:00 13.6 20 Noroeste 40 Noroeste 0 -- -- 78
2019-06-05 12:00:00 14.1 23 Noroeste 37 Noroeste 0 -- -- 76
2019-06-05 11:00:00 12.5 21 Noroeste 37 Noroeste 0.2 -- -- 86
2019-06-05 10:00:00 12.2 21 Noroeste 39 Noroeste 0.4 -- -- 94
2019-06-05 09:00:00 11.5 21 Noroeste 42 Oeste 1.8 -- -- 95
2019-06-05 08:00:00 11.9 21 Noroeste 31 Oeste 3.4 -- -- 97
2019-06-05 07:00:00 11.9 14 Noroeste 26 Noroeste 0.2 -- -- 96
2019-06-05 06:00:00 11.8 14 Noroeste 31 Noroeste 2.4 -- -- 95
2019-06-05 05:00:00 12.5 15 Noroeste 28 Noroeste 1.6 -- -- 93
2019-06-05 04:00:00 12.5 15 Noroeste 29 Noroeste 1.2 -- -- 90
2019-06-05 03:00:00 13.5 16 Noroeste 31 Oeste 0 -- -- 79
2019-06-05 02:00:00 14.1 13 Noroeste 25 Noroeste 0 -- -- 71
2019-06-05 01:00:00 14.1 16 Noroeste 31 Noroeste 0 -- -- 71
2019-06-05 00:00:00 14.4 18 Noroeste 33 Noroeste 0 -- -- 72
2019-06-04 23:00:00 15.5 17 Noroeste 45 Noroeste 0 -- -- 75
2019-06-04 22:00:00 16 26 Noroeste 47 Noroeste 0 -- -- 77
2019-06-04 21:00:00 17.1 24 Noroeste 39 Norte 0.2 -- -- 76
2019-06-04 20:00:00 19.2 7 Noroeste 48 Norte 2.2 -- -- 78
2019-06-04 19:00:00 23 27 Norte 50 Norte 0 -- -- 59
2019-06-04 18:00:00 31.2 21 Sudoeste 46 Sudoeste 0 -- -- 26
2019-06-04 17:00:00 32.5 27 Sudoeste 46 Oeste 0 -- -- 25
2019-06-04 16:00:00 32 31 Sudoeste 47 Sudoeste 0 -- -- 28
2019-06-04 15:00:00 31.2 26 Sudoeste 48 Sur 0 -- -- 30
2019-06-04 14:00:00 31.7 27 Sudeste 46 Sudoeste 0 -- -- 29
2019-06-04 13:00:00 28.6 17 Sudeste 41 Sudeste -- -- -- 39
2019-06-04 12:00:00 -- -- -- -- -- -- -- -- --
2019-06-04 11:00:00 -- -- -- -- -- -- -- -- --
2019-06-04 10:00:00 -- -- -- -- -- -- -- -- --
2019-06-04 09:00:00 -- -- -- -- -- -- -- -- --
2019-06-04 08:00:00 -- -- -- -- -- -- -- -- --
2019-06-04 07:00:00 -- -- -- -- -- -- -- -- --
2019-06-04 06:00:00 -- -- -- -- -- -- -- -- --
2019-06-04 05:00:00 -- -- -- -- -- -- -- -- --
2019-06-04 04:00:00 -- -- -- -- -- -- -- -- --
2019-06-04 03:00:00 -- -- -- -- -- -- -- -- --
2019-06-04 02:00:00 -- -- -- -- -- -- -- -- --
2019-06-04 01:00:00 -- -- -- -- -- -- -- -- --
2019-06-04 00:00:00 -- -- -- -- -- -- -- -- --
2019-06-03 23:00:00 -- -- -- -- -- -- -- -- --
2019-06-03 22:00:00 -- -- -- -- -- -- -- -- --
2019-06-03 21:00:00 -- -- -- -- -- -- -- -- --
2019-06-03 20:00:00 -- -- -- -- -- -- -- -- --
2019-06-03 19:00:00 -- -- -- -- -- -- -- -- --
2019-06-03 18:00:00 -- -- -- -- -- -- -- -- --
2019-06-03 17:00:00 -- -- -- -- -- -- -- -- --
2019-06-03 16:00:00 -- -- -- -- -- -- -- -- --
2019-06-03 15:00:00 -- -- -- -- -- -- -- -- --
2019-06-03 14:00:00 -- -- -- -- -- -- -- -- --
2019-06-03 13:00:00 -- -- -- -- -- -- -- -- --
2019-06-03 12:00:00 -- -- -- -- -- -- -- -- --
2019-06-03 11:00:00 -- -- -- -- -- -- -- -- --
2019-06-03 10:00:00 -- -- -- -- -- -- -- -- --
2019-06-03 09:00:00 -- -- -- -- -- -- -- -- --
2019-06-03 08:00:00 -- -- -- -- -- -- -- -- --
2019-06-03 07:00:00 -- -- -- -- -- -- -- -- --
2019-06-03 06:00:00 -- -- -- -- -- -- -- -- --
2019-06-03 05:00:00 -- -- -- -- -- -- -- -- --
2019-06-03 04:00:00 -- -- -- -- -- -- -- -- --
2019-06-03 03:00:00 -- -- -- -- -- -- -- -- --
2019-06-03 02:00:00 -- -- -- -- -- -- -- -- --
2019-06-03 01:00:00 -- -- -- -- -- -- -- -- --
2019-06-03 00:00:00 -- -- -- -- -- -- -- -- --
2019-06-02 23:00:00 -- -- -- -- -- -- -- -- --
2019-06-02 22:00:00 -- -- -- -- -- -- -- -- --
2019-06-02 21:00:00 -- -- -- -- -- -- -- -- --
2019-06-02 20:00:00 -- -- -- -- -- -- -- -- --
2019-06-02 19:00:00 -- -- -- -- -- -- -- -- --
2019-06-02 18:00:00 -- -- -- -- -- -- -- -- --
2019-06-02 17:00:00 -- -- -- -- -- -- -- -- --
2019-06-02 16:00:00 -- -- -- -- -- -- -- -- --
2019-06-02 15:00:00 -- -- -- -- -- -- -- -- --
2019-06-02 14:00:00 -- -- -- -- -- -- -- -- --
2019-06-02 13:00:00 -- -- -- -- -- -- -- -- --
2019-06-02 12:00:00 -- -- -- -- -- -- -- -- --
2019-06-02 11:00:00 -- -- -- -- -- -- -- -- --
2019-06-02 10:00:00 -- -- -- -- -- -- -- -- --
2019-06-02 09:00:00 -- -- -- -- -- -- -- -- --
2019-06-02 08:00:00 -- -- -- -- -- -- -- -- --
2019-06-02 07:00:00 -- -- -- -- -- -- -- -- --
2019-06-02 06:00:00 -- -- -- -- -- -- -- -- --
2019-06-02 05:00:00 -- -- -- -- -- -- -- -- --
2019-06-02 04:00:00 -- -- -- -- -- -- -- -- --
2019-06-02 03:00:00 -- -- -- -- -- -- -- -- --
2019-06-02 02:00:00 -- -- -- -- -- -- -- -- --
2019-06-02 01:00:00 -- -- -- -- -- -- -- -- --
2019-06-02 00:00:00 -- -- -- -- -- -- -- -- --
2019-06-01 23:00:00 -- -- -- -- -- -- -- -- --
2019-06-01 22:00:00 -- -- -- -- -- -- -- -- --
2019-06-01 21:00:00 -- -- -- -- -- -- -- -- --
2019-06-01 20:00:00 -- -- -- -- -- -- -- -- --
2019-06-01 19:00:00 -- -- -- -- -- -- -- -- --
2019-06-01 18:00:00 -- -- -- -- -- -- -- -- --
2019-06-01 17:00:00 -- -- -- -- -- -- -- -- --
2019-06-01 16:00:00 -- -- -- -- -- -- -- -- --
2019-06-01 15:00:00 -- -- -- -- -- -- -- -- --
2019-06-01 14:00:00 -- -- -- -- -- -- -- -- --
2019-06-01 13:00:00 -- -- -- -- -- -- -- -- --
2019-06-01 12:00:00 -- -- -- -- -- -- -- -- --
2019-06-01 11:00:00 -- -- -- -- -- -- -- -- --
2019-06-01 10:00:00 -- -- -- -- -- -- -- -- --
2019-06-01 09:00:00 -- -- -- -- -- -- -- -- --
2019-06-01 08:00:00 -- -- -- -- -- -- -- -- --
2019-06-01 07:00:00 -- -- -- -- -- -- -- -- --
2019-06-01 06:00:00 -- -- -- -- -- -- -- -- --
2019-06-01 05:00:00 -- -- -- -- -- -- -- -- --
2019-06-01 04:00:00 -- -- -- -- -- -- -- -- --
2019-06-01 03:00:00 -- -- -- -- -- -- -- -- --
2019-06-01 02:00:00 -- -- -- -- -- -- -- -- --
2019-06-01 01:00:00 -- -- -- -- -- -- -- -- --
2019-06-01 00:00:00 -- -- -- -- -- -- -- -- --
2019-05-31 23:00:00 -- -- -- -- -- -- -- -- --
2019-05-31 22:00:00 -- -- -- -- -- -- -- -- --
2019-05-31 21:00:00 -- -- -- -- -- -- -- -- --
2019-05-31 20:00:00 -- -- -- -- -- -- -- -- --
2019-05-31 19:00:00 -- -- -- -- -- -- -- -- --
2019-05-31 18:00:00 -- -- -- -- -- -- -- -- --
2019-05-31 17:00:00 -- -- -- -- -- -- -- -- --
2019-05-31 16:00:00 -- -- -- -- -- -- -- -- --
2019-05-31 15:00:00 -- -- -- -- -- -- -- -- --
2019-05-31 14:00:00 -- -- -- -- -- -- -- -- --
2019-05-31 13:00:00 -- -- -- -- -- -- -- -- --
2019-05-31 12:00:00 -- -- -- -- -- -- -- -- --
2019-05-31 11:00:00 -- -- -- -- -- -- -- -- --
2019-05-31 10:00:00 -- -- -- -- -- -- -- -- --
2019-05-31 09:00:00 -- -- -- -- -- -- -- -- --
2019-05-31 08:00:00 -- -- -- -- -- -- -- -- --
2019-05-31 07:00:00 -- -- -- -- -- -- -- -- --
2019-05-31 06:00:00 -- -- -- -- -- -- -- -- --
2019-05-31 05:00:00 -- -- -- -- -- -- -- -- --
2019-05-31 04:00:00 -- -- -- -- -- -- -- -- --
2019-05-31 03:00:00 -- -- -- -- -- -- -- -- --
2019-05-31 02:00:00 -- -- -- -- -- -- -- -- --
2019-05-31 01:00:00 -- -- -- -- -- -- -- -- --
2019-05-31 00:00:00 -- -- -- -- -- -- -- -- --
2019-05-30 23:00:00 -- -- -- -- -- -- -- -- --
2019-05-30 22:00:00 -- -- -- -- -- -- -- -- --
2019-05-30 21:00:00 -- -- -- -- -- -- -- -- --
2019-05-30 20:00:00 -- -- -- -- -- -- -- -- --
2019-05-30 19:00:00 -- -- -- -- -- -- -- -- --
2019-05-30 18:00:00 -- -- -- -- -- -- -- -- --
2019-05-30 17:00:00 -- -- -- -- -- -- -- -- --
2019-05-30 16:00:00 -- -- -- -- -- -- -- -- --
2019-05-30 15:00:00 -- -- -- -- -- -- -- -- --
2019-05-30 14:00:00 -- -- -- -- -- -- -- -- --
2019-05-30 13:00:00 -- -- -- -- -- -- -- -- --
2019-05-30 12:00:00 -- -- -- -- -- -- -- -- --
2019-05-30 11:00:00 -- -- -- -- -- -- -- -- --
2019-05-30 10:00:00 -- -- -- -- -- -- -- -- --
2019-05-30 09:00:00 -- -- -- -- -- -- -- -- --
2019-05-30 08:00:00 -- -- -- -- -- -- -- -- --
2019-05-30 07:00:00 -- -- -- -- -- -- -- -- --
2019-05-30 06:00:00 -- -- -- -- -- -- -- -- --
2019-05-30 05:00:00 -- -- -- -- -- -- -- -- --
2019-05-30 04:00:00 -- -- -- -- -- -- -- -- --
2019-05-30 03:00:00 -- -- -- -- -- -- -- -- --
2019-05-30 02:00:00 -- -- -- -- -- -- -- -- --
2019-05-30 01:00:00 -- -- -- -- -- -- -- -- --
2019-05-30 00:00:00 -- -- -- -- -- -- -- -- --
2019-05-29 23:00:00 -- -- -- -- -- -- -- -- --
2019-05-29 22:00:00 -- -- -- -- -- -- -- -- --
2019-05-29 21:00:00 -- -- -- -- -- -- -- -- --
2019-05-29 20:00:00 18.9 22 Norte 41 Noroeste 0 -- -- 49
2019-05-29 19:00:00 20 25 Noroeste 41 Noroeste 0 -- -- 47
2019-05-29 18:00:00 20.2 23 Noroeste 44 Norte 0 -- -- 45
2019-05-29 17:00:00 19.9 26 Noroeste 45 Noroeste 0 -- -- 46
2019-05-29 16:00:00 19.5 28 Noroeste 47 Noroeste 0 -- -- 46
2019-05-29 15:00:00 18.9 23 Noroeste 55 Noroeste 0 -- -- 50
2019-05-29 14:00:00 19 27 Noroeste 48 Noroeste 0 -- -- 49
2019-05-29 13:00:00 17.9 27 Noroeste 45 Noroeste 0 -- -- 53
2019-05-29 12:00:00 17.5 27 Noroeste 48 Norte 0 -- -- 55
2019-05-29 11:00:00 16.6 28 Norte 47 Norte 0 -- -- 53
2019-05-29 10:00:00 15.4 22 Noroeste 39 Noroeste 0 -- -- 64
2019-05-29 09:00:00 12.9 14 Noroeste 25 Noroeste 0 -- -- 74
2019-05-29 08:00:00 11.7 6 Noroeste 33 Noroeste 0 -- -- 81
2019-05-29 07:00:00 11.3 8 Noroeste 15 Noroeste 0 -- -- 78
2019-05-29 06:00:00 10.9 11 Noroeste 32 Noroeste 0 -- -- 78
2019-05-29 05:00:00 11.5 9 Noroeste 24 Noroeste 0 -- -- 74
2019-05-29 04:00:00 11.8 13 Noroeste 29 Noroeste 0 -- -- 70
2019-05-29 03:00:00 12.1 21 Noroeste 36 Noroeste 0 -- -- 69
2019-05-29 02:00:00 11.8 13 Noroeste 26 Noroeste 0 -- -- 67
2019-05-29 01:00:00 12.1 12 Noroeste 34 Norte 0 -- -- 65
2019-05-29 00:00:00 13 16 Noroeste 31 Noroeste 0 -- -- 62
2019-05-28 23:00:00 13.6 17 Noroeste 31 Noroeste 0 -- -- 59
2019-05-28 22:00:00 13.9 19 Norte 39 Noroeste 0 -- -- 57
2019-05-28 21:00:00 14.6 20 Noroeste 36 Noroeste 0 -- -- 55
2019-05-28 20:00:00 15.5 18 Norte 39 Norte 0 -- -- 53
2019-05-28 19:00:00 15.7 26 Norte 44 Noroeste 0 -- -- 55
2019-05-28 18:00:00 16.4 27 Noroeste 43 Noroeste 0 -- -- 51
2019-05-28 17:00:00 16.5 26 Noroeste 44 Noroeste 0 -- -- 56
2019-05-28 16:00:00 16.9 23 Noroeste 50 Noroeste 0 -- -- 54
2019-05-28 15:00:00 17.9 27 Noroeste 45 Noroeste 0 -- -- 52
2019-05-28 14:00:00 15.4 23 Noroeste 44 Noroeste 0 -- -- 63
2019-05-28 13:00:00 15.3 21 Norte 46 Noroeste 0 -- -- 62
2019-05-28 12:00:00 16.1 27 Noroeste 43 Noroeste 0 -- -- 56
2019-05-28 11:00:00 16.7 26 Noroeste 44 Noroeste 0 -- -- 52
2019-05-28 10:00:00 15.2 22 Noroeste 48 Noroeste 0 -- -- 57
2019-05-28 09:00:00 13.9 26 Noroeste 42 Noroeste 0 -- -- 61
2019-05-28 08:00:00 12.8 20 Noroeste 33 Noroeste 0 -- -- 67
2019-05-28 07:00:00 11.3 13 Noroeste 24 Noroeste 0 -- -- 72
2019-05-28 06:00:00 10.1 12 Noroeste 23 Noroeste 0 -- -- 74
2019-05-28 05:00:00 10.5 14 Noroeste 28 Noroeste 0 -- -- 77
2019-05-28 04:00:00 10.7 12 Noroeste 22 Noroeste 0 -- -- 77
2019-05-28 03:00:00 11.1 12 Noroeste 23 Noroeste 0 -- -- 76
2019-05-28 02:00:00 12 14 Noroeste 26 Noroeste 0 -- -- 73
2019-05-28 01:00:00 12.3 14 Noroeste 24 Noroeste 0 -- -- 71
2019-05-28 00:00:00 12.7 12 Oeste 34 Norte 0 -- -- 69